Time;durP1;ratioP1;P1;durP2;ratioP2;P2;SDS_P1;SDS_P2;PMS_P1;PMS_P2;Temp;Humidity;BMP_temperature;BMP_pressure;BME280_temperature;BME280_humidity;BME280_pressure;Samples;Min_cycle;Max_cycle;Signal;HPM_P1;HPM_P2
2022/09/27 00:00:05;;;;;;;7.85;1.92;;;12.90;83.20;;;;;;5113343;28;20027;-61
2022/09/27 00:02:37;;;;;;;4.97;1.50;;;12.90;83.20;;;;;;5114806;28;20031;-61
2022/09/27 00:05:03;;;;;;;6.30;1.80;;;12.90;83.30;;;;;;5114192;28;20464;-61
2022/09/27 00:07:29;;;;;;;6.55;2.08;;;12.90;83.30;;;;;;5114065;27;20035;-61
2022/09/27 00:09:54;;;;;;;4.43;1.20;;;12.90;83.20;;;;;;5114445;28;20027;-61
2022/09/27 00:12:20;;;;;;;6.32;1.38;;;12.90;83.20;;;;;;5113487;28;20478;-61
2022/09/27 00:14:46;;;;;;;5.05;1.30;;;12.90;83.30;;;;;;5114399;28;20036;-61
2022/09/27 00:17:11;;;;;;;7.00;1.85;;;12.90;83.30;;;;;;5114326;28;20020;-61
2022/09/27 00:19:37;;;;;;;3.03;1.20;;;12.80;83.20;;;;;;5112961;28;20035;-61
2022/09/27 00:22:03;;;;;;;5.68;1.70;;;12.80;83.20;;;;;;5114230;28;20360;-61
2022/09/27 00:24:28;;;;;;;7.43;1.38;;;12.90;83.30;;;;;;5114079;28;20036;-61
2022/09/27 00:26:54;;;;;;;4.88;1.27;;;12.80;83.20;;;;;;5114233;28;20084;-61
2022/09/27 00:29:20;;;;;;;4.10;1.20;;;12.80;83.20;;;;;;5111815;28;20112;-61
2022/09/27 00:31:46;;;;;;;4.50;1.42;;;12.90;83.30;;;;;;5114228;28;20444;-61
2022/09/27 00:34:21;;;;;;;4.35;1.20;;;12.80;83.20;;;;;;5112272;28;20059;-61
2022/09/27 00:36:48;;;;;;;5.15;1.75;;;12.80;83.10;;;;;;5114163;28;20027;-61
2022/09/27 00:39:14;;;;;;;5.20;1.27;;;12.80;83.10;;;;;;5112050;28;20053;-62
2022/09/27 00:41:41;;;;;;;5.65;1.50;;;12.80;83.00;;;;;;5095376;28;20035;-62
2022/09/27 00:44:28;;;;;;;3.30;0.98;;;12.80;83.10;;;;;;5110442;28;20026;-61
2022/09/27 00:47:09;;;;;;;4.25;1.40;;;12.80;83.00;;;;;;5099926;28;20020;-61
2022/09/27 00:49:49;;;;;;;4.88;1.35;;;12.80;82.90;;;;;;5120566;27;20039;-62
2022/09/27 00:52:30;;;;;;;5.63;1.38;;;12.70;82.90;;;;;;5112487;28;20085;-61
2022/09/27 00:55:10;;;;;;;5.32;1.20;;;12.70;82.90;;;;;;5115414;28;20028;-61
2022/09/27 00:57:36;;;;;;;4.47;1.50;;;12.70;82.90;;;;;;5104510;28;20024;-61
2022/09/27 01:00:08;;;;;;;4.93;1.20;;;12.70;83.10;;;;;;5128582;27;20031;-61
2022/09/27 01:02:37;;;;;;;3.10;1.25;;;12.70;83.10;;;;;;5114409;28;20456;-61
2022/09/27 01:05:05;;;;;;;4.20;1.20;;;12.70;83.10;;;;;;5114981;28;20028;-61
2022/09/27 01:07:30;;;;;;;3.00;1.10;;;12.70;83.10;;;;;;5114835;28;20359;-61
2022/09/27 01:09:57;;;;;;;3.42;1.20;;;12.70;83.00;;;;;;5113790;28;20023;-61
2022/09/27 01:12:44;;;;;;;5.68;1.27;;;12.70;82.90;;;;;;5130442;27;20030;-61
2022/09/27 01:15:16;;;;;;;3.58;1.00;;;12.70;82.90;;;;;;5117131;27;20062;-61
2022/09/27 01:18:00;;;;;;;3.60;1.13;;;12.70;82.90;;;;;;5130691;28;20028;-61
2022/09/27 01:20:42;;;;;;;3.83;1.50;;;12.70;83.00;;;;;;5129191;27;20123;-61
2022/09/27 01:23:26;;;;;;;5.10;1.00;;;12.70;82.90;;;;;;5131028;28;20020;-61
2022/09/27 01:26:04;;;;;;;4.47;0.90;;;12.70;82.90;;;;;;5127254;27;20023;-61
2022/09/27 01:28:54;;;;;;;4.32;1.20;;;12.70;82.90;;;;;;5096366;28;20024;-61
2022/09/27 01:31:38;;;;;;;4.30;1.23;;;12.70;82.90;;;;;;5130841;28;20035;-61
2022/09/27 01:34:10;;;;;;;5.47;1.00;;;12.70;82.90;;;;;;5125090;28;20023;-61
2022/09/27 01:36:50;;;;;;;3.70;1.13;;;12.70;82.70;;;;;;5114663;28;20027;-61
2022/09/27 01:39:58;;;;;;;4.07;1.02;;;12.70;82.70;;;;;;5112308;28;20034;-61
2022/09/27 01:42:51;;;;;;;4.70;1.08;;;12.70;82.60;;;;;;5111710;28;20051;-61
2022/09/27 01:45:29;;;;;;;3.55;0.90;;;12.60;82.60;;;;;;5130981;28;20032;-61
2022/09/27 01:48:22;;;;;;;3.50;0.88;;;12.60;82.70;;;;;;5129511;28;20448;-61
2022/09/27 01:51:05;;;;;;;5.88;1.27;;;12.50;82.70;;;;;;5113538;28;20035;-61
2022/09/27 01:53:35;;;;;;;;;;;12.50;82.70;;;;;;5130670;27;20034;-61
2022/09/27 01:56:27;;;;;;;3.50;0.98;;;12.50;82.70;;;;;;5122916;28;19957;-62
2022/09/27 01:59:06;;;;;;;5.97;1.40;;;12.50;82.70;;;;;;5129713;27;20055;-61
2022/09/27 02:01:35;;;;;;;4.15;0.93;;;12.50;82.70;;;;;;5113415;28;20036;-61
2022/09/27 02:04:04;;;;;;;1.58;0.63;;;12.50;82.60;;;;;;5126889;28;20027;-61
2022/09/27 02:06:55;;;;;;;4.63;1.00;;;12.40;82.50;;;;;;5095504;28;20039;-61
2022/09/27 02:10:03;;;;;;;3.53;0.90;;;12.50;82.50;;;;;;5113631;28;20038;-61
2022/09/27 02:13:01;;;;;;;0.95;0.60;;;12.40;82.50;;;;;;5085250;28;20067;-61
2022/09/27 02:15:32;;;;;;;3.00;1.10;;;12.40;82.50;;;;;;5117083;28;20067;-61
2022/09/27 02:18:27;;;;;;;3.97;0.88;;;12.40;82.40;;;;;;5115673;27;20023;-61
2022/09/27 02:20:58;;;;;;;2.40;0.80;;;12.40;82.40;;;;;;5133105;27;20027;-61
2022/09/27 02:23:32;;;;;;;5.05;1.05;;;12.40;82.40;;;;;;5122132;27;20551;-61
2022/09/27 02:26:15;;;;;;;3.15;0.90;;;12.30;82.40;;;;;;5134170;27;20031;-61
2022/09/27 02:29:04;;;;;;;3.03;0.80;;;12.30;82.40;;;;;;5132708;27;20028;-61
2022/09/27 02:31:35;;;;;;;4.63;0.88;;;12.30;82.30;;;;;;5134406;27;20432;-62
2022/09/27 02:34:21;;;;;;;6.95;1.13;;;12.30;82.30;;;;;;5132172;27;20114;-61
2022/09/27 02:36:47;;;;;;;2.85;0.88;;;12.30;82.30;;;;;;5126089;27;20038;-61
2022/09/27 02:39:14;;;;;;;5.35;0.90;;;12.20;82.30;;;;;;5133862;27;20110;-61
2022/09/27 02:41:39;;;;;;;4.18;1.23;;;12.20;82.30;;;;;;5133850;27;20059;-62
2022/09/27 02:44:09;;;;;;;1.92;0.80;;;12.20;82.30;;;;;;5133440;27;20031;-61
2022/09/27 02:46:53;;;;;;;4.90;0.90;;;12.20;82.20;;;;;;5132990;27;20039;-61
2022/09/27 02:49:38;;;;;;;2.20;0.90;;;12.20;82.10;;;;;;5131738;27;20047;-61
2022/09/27 02:52:48;;;;;;;2.63;0.88;;;12.20;82.10;;;;;;5116476;28;20050;-61
2022/09/27 02:55:33;;;;;;;3.85;1.38;;;12.10;82.10;;;;;;5077047;28;20062;-61
2022/09/27 02:58:19;;;;;;;2.95;0.73;;;12.10;82.20;;;;;;5058893;28;20437;-61
2022/09/27 03:01:11;;;;;;;2.13;0.73;;;12.10;82.10;;;;;;5071812;28;20074;-61
2022/09/27 03:03:58;;;;;;;2.55;0.70;;;12.10;82.20;;;;;;5073926;28;20461;-61
2022/09/27 03:06:25;;;;;;;3.00;0.82;;;12.10;82.10;;;;;;5057480;28;20029;-61
2022/09/27 03:08:51;;;;;;;8.95;1.20;;;12.10;82.10;;;;;;5057435;28;20024;-61
2022/09/27 03:11:17;;;;;;;3.05;0.70;;;12.10;82.20;;;;;;5074727;28;20157;-61
2022/09/27 03:13:43;;;;;;;3.33;0.82;;;12.10;82.10;;;;;;5074728;28;20048;-62
2022/09/27 03:16:10;;;;;;;5.47;0.77;;;12.10;82.10;;;;;;5058696;28;20044;-61
2022/09/27 03:19:09;;;;;;;1.90;0.70;;;12.10;82.10;;;;;;5070896;28;20132;-61
2022/09/27 03:22:07;;;;;;;6.40;1.10;;;12.10;82.00;;;;;;5074537;28;20060;-61
2022/09/27 03:24:33;;;;;;;3.08;0.90;;;12.10;81.90;;;;;;5072848;28;20484;-61
2022/09/27 03:26:59;;;;;;;3.63;0.98;;;12.10;81.90;;;;;;5056615;28;20025;-61
2022/09/27 03:29:25;;;;;;;4.78;1.20;;;12.10;81.90;;;;;;5073203;28;20467;-61
2022/09/27 03:31:58;;;;;;;6.97;1.20;;;12.10;81.90;;;;;;5100572;27;20403;-61
2022/09/27 03:34:24;;;;;;;3.67;1.08;;;12.10;81.90;;;;;;5116719;28;20093;-61
2022/09/27 03:36:50;;;;;;;8.30;1.73;;;12.10;82.00;;;;;;5115097;27;20340;-61
2022/09/27 03:39:16;;;;;;;7.20;1.50;;;12.10;82.00;;;;;;5116439;28;20055;-61
2022/09/27 03:41:42;;;;;;;5.68;1.25;;;12.00;82.00;;;;;;5115620;28;20028;-61
2022/09/27 03:44:07;;;;;;;5.70;1.83;;;12.00;82.10;;;;;;5137210;27;20110;-61
2022/09/27 03:46:33;;;;;;;2.30;0.95;;;12.10;82.20;;;;;;5114514;27;20436;-61
2022/09/27 03:48:59;;;;;;;1.70;1.02;;;12.00;82.10;;;;;;5131340;27;20379;-61
2022/09/27 03:51:25;;;;;;;5.07;1.48;;;12.00;82.10;;;;;;5121198;27;20072;-61
2022/09/27 03:53:51;;;;;;;5.15;1.65;;;12.10;82.10;;;;;;5114866;28;20031;-61
2022/09/27 03:56:17;;;;;;;3.72;1.10;;;12.00;82.10;;;;;;5114851;28;20089;-61
2022/09/27 03:58:43;;;;;;;4.93;1.05;;;12.00;82.10;;;;;;5116346;27;20028;-62
2022/09/27 04:01:09;;;;;;;3.03;1.00;;;12.10;82.10;;;;;;5113517;28;20027;-61
2022/09/27 04:03:37;;;;;;;5.63;1.40;;;12.10;82.10;;;;;;5113862;27;20031;-61
2022/09/27 04:06:22;;;;;;;3.47;1.08;;;12.00;81.90;;;;;;5114966;28;20012;-61
2022/09/27 04:08:49;;;;;;;6.40;1.20;;;12.00;81.90;;;;;;5115095;28;20099;-61
2022/09/27 04:11:14;;;;;;;5.68;1.67;;;12.00;81.90;;;;;;5124830;27;20089;-61
2022/09/27 04:13:43;;;;;;;4.03;1.10;;;12.00;81.90;;;;;;5112434;28;20032;-61
2022/09/27 04:16:09;;;;;;;6.22;1.45;;;12.00;81.90;;;;;;5116015;27;20044;-61
2022/09/27 04:19:13;;;;;;;6.15;1.15;;;12.00;82.00;;;;;;5069330;28;20109;-61
2022/09/27 04:22:02;;;;;;;2.55;0.95;;;12.00;81.90;;;;;;5067795;28;20048;-61
2022/09/27 04:24:30;;;;;;;6.75;2.00;;;12.00;82.00;;;;;;5071213;28;20072;-61
2022/09/27 04:27:13;;;;;;;5.00;1.33;;;12.00;82.00;;;;;;5067885;28;20555;-61
2022/09/27 04:29:44;;;;;;;5.45;1.60;;;12.00;82.10;;;;;;5057348;28;20108;-61
2022/09/27 04:32:26;;;;;;;6.13;1.42;;;11.90;82.10;;;;;;5072540;28;20025;-61
2022/09/27 04:37:56;;;;;;;6.68;1.30;;;12.00;82.20;;;;;;5067726;28;20547;-61
2022/09/27 04:40:22;;;;;;;6.13;1.55;;;12.00;82.10;;;;;;5055618;28;20457;-61
2022/09/27 04:42:49;;;;;;;5.57;1.50;;;12.00;82.10;;;;;;5073071;28;20079;-61
2022/09/27 04:45:16;;;;;;;7.25;1.60;;;12.00;82.10;;;;;;5072811;28;20036;-61
2022/09/27 04:47:47;;;;;;;7.22;1.45;;;12.00;82.10;;;;;;5073118;28;20047;-62
2022/09/27 04:50:14;;;;;;;5.97;1.60;;;11.90;82.00;;;;;;5105734;27;20032;-61
2022/09/27 04:52:40;;;;;;;5.65;1.55;;;12.00;82.10;;;;;;5114164;28;20028;-61
2022/09/27 04:55:07;;;;;;;7.05;1.50;;;12.00;82.10;;;;;;5114021;28;20122;-61
2022/09/27 04:57:33;;;;;;;9.98;2.42;;;12.00;82.00;;;;;;5131109;27;20024;-61
2022/09/27 04:59:59;;;;;;;5.15;1.63;;;12.00;81.90;;;;;;5111047;28;20019;-62
2022/09/27 05:02:28;;;;;;;6.40;1.50;;;12.00;82.60;;;;;;5115707;28;20036;-61
2022/09/27 05:05:11;;;;;;;6.00;1.80;;;12.00;81.90;;;;;;5131672;27;20055;-61
2022/09/27 05:07:40;;;;;;;7.78;2.10;;;11.90;82.00;;;;;;5113023;28;20015;-61
2022/09/27 05:10:11;;;;;;;;;;;11.90;82.00;;;;;;5134712;27;20103;-61
2022/09/27 05:12:37;;;;;;;5.10;1.55;;;11.90;81.90;;;;;;5114232;28;20024;-61
2022/09/27 05:15:04;;;;;;;4.97;1.33;;;11.90;82.00;;;;;;5113645;28;20040;-61
2022/09/27 05:17:51;;;;;;;6.07;1.48;;;11.90;82.00;;;;;;5129765;28;20073;-61
2022/09/27 05:20:40;;;;;;;5.57;1.40;;;11.80;82.00;;;;;;5070537;28;20032;-60
2022/09/27 05:23:11;;;;;;;5.60;1.67;;;11.80;82.00;;;;;;5068199;28;20135;-61
2022/09/27 05:25:37;;;;;;;4.93;0.95;;;11.80;82.00;;;;;;5056516;28;20128;-61
2022/09/27 05:28:04;;;;;;;10.75;1.85;;;11.80;82.00;;;;;;5051991;28;20044;-61
2022/09/27 05:30:29;;;;;;;7.65;1.42;;;11.80;82.00;;;;;;5072077;28;20048;-60
2022/09/27 05:33:04;;;;;;;5.65;1.73;;;11.80;82.00;;;;;;5055640;28;20025;-61
2022/09/27 05:35:43;;;;;;;6.22;1.25;;;11.80;82.10;;;;;;5069878;28;20075;-60
2022/09/27 05:38:09;;;;;;;5.55;1.23;;;11.80;81.90;;;;;;5054783;28;20075;-61
2022/09/27 05:40:36;;;;;;;7.20;1.75;;;11.80;81.80;;;;;;5054918;28;20043;-60
2022/09/27 05:43:02;;;;;;;7.22;1.80;;;11.80;81.70;;;;;;5056679;28;20028;-61
2022/09/27 05:45:28;;;;;;;6.35;1.73;;;11.80;81.70;;;;;;5055963;28;20037;-61
2022/09/27 05:47:58;;;;;;;5.18;1.80;;;11.80;81.70;;;;;;5073530;28;20047;-61
2022/09/27 05:50:26;;;;;;;5.47;1.45;;;11.80;81.60;;;;;;5057166;28;20075;-61
2022/09/27 05:52:52;;;;;;;7.80;1.85;;;11.80;81.50;;;;;;5076231;28;20024;-62
2022/09/27 05:55:19;;;;;;;9.90;2.10;;;11.90;81.40;;;;;;5075702;28;20396;-62
2022/09/27 05:58:03;;;;;;;2.53;1.10;;;11.90;81.30;;;;;;5109668;27;20039;-62
2022/09/27 06:00:43;;;;;;;6.53;1.45;;;11.80;81.20;;;;;;5110164;28;20027;-62
2022/09/27 06:03:28;;;;;;;7.50;1.73;;;11.80;81.20;;;;;;5117315;28;20039;-63
2022/09/27 06:06:17;;;;;;;6.82;1.63;;;11.90;81.40;;;;;;5116997;27;20084;-62
2022/09/27 06:08:50;;;;;;;6.47;1.48;;;11.80;81.30;;;;;;5116407;28;20023;-62
2022/09/27 06:11:18;;;;;;;4.20;1.60;;;11.80;81.40;;;;;;5116689;27;20058;-62
2022/09/27 06:13:44;;;;;;;6.97;1.83;;;11.80;81.50;;;;;;5116694;27;20019;-62
2022/09/27 06:16:11;;;;;;;4.60;1.77;;;11.90;81.40;;;;;;5117084;27;20383;-62
2022/09/27 06:18:39;;;;;;;7.85;1.40;;;11.80;81.40;;;;;;5117033;28;20027;-61
2022/09/27 06:21:05;;;;;;;4.80;1.73;;;11.90;81.40;;;;;;5122706;27;20030;-61
2022/09/27 06:23:32;;;;;;;2.88;1.20;;;12.00;81.40;;;;;;5118587;27;20085;-61
2022/09/27 06:26:05;;;;;;;5.30;1.30;;;12.00;81.20;;;;;;5116944;28;20024;-61
2022/09/27 06:28:50;;;;;;;6.53;1.50;;;12.10;81.20;;;;;;5111522;27;20050;-61
2022/09/27 06:31:15;;;;;;;7.18;1.77;;;12.10;80.90;;;;;;5115994;28;20032;-61
2022/09/27 06:33:51;;;;;;;3.33;1.00;;;12.10;80.80;;;;;;5108298;27;20115;-62
2022/09/27 06:36:17;;;;;;;3.08;1.33;;;12.20;80.80;;;;;;5120904;27;20048;-61
2022/09/27 06:38:45;;;;;;;4.22;1.10;;;12.20;80.80;;;;;;5131699;27;20019;-61
2022/09/27 06:41:20;;;;;;;5.13;1.25;;;12.20;80.70;;;;;;5134399;27;20072;-61
2022/09/27 06:44:03;;;;;;;5.57;1.42;;;12.30;80.70;;;;;;5109512;28;20043;-61
2022/09/27 06:46:36;;;;;;;3.95;0.98;;;12.30;80.60;;;;;;5117897;27;20120;-62
2022/09/27 06:49:08;;;;;;;4.50;1.17;;;12.40;80.50;;;;;;5119754;27;20348;-61
2022/09/27 06:51:35;;;;;;;4.15;1.63;;;12.40;80.40;;;;;;5126398;27;20037;-61
2022/09/27 06:54:00;;;;;;;4.45;1.23;;;12.30;80.40;;;;;;5114696;27;20110;-61
2022/09/27 06:56:26;;;;;;;2.92;1.10;;;12.40;80.50;;;;;;5116592;28;20111;-61
2022/09/27 07:01:43;;;;;;;3.58;1.20;;;12.40;80.40;;;;;;5104970;28;20050;-61
2022/09/27 07:04:10;;;;;;;3.95;1.27;;;12.40;80.30;;;;;;5119879;27;20035;-61
2022/09/27 07:07:12;;;;;;;3.08;0.80;;;12.50;80.40;;;;;;5106085;27;20074;-61
2022/09/27 07:09:48;;;;;;;4.13;1.23;;;12.60;80.40;;;;;;5116176;28;20451;-61
2022/09/27 07:12:13;;;;;;;3.13;0.98;;;12.70;80.20;;;;;;5115368;28;20011;-61
2022/09/27 07:14:41;;;;;;;5.07;1.17;;;12.80;80.00;;;;;;5132765;27;20040;-62
2022/09/27 07:17:12;;;;;;;4.50;1.40;;;12.80;79.90;;;;;;5116279;28;20016;-62
2022/09/27 07:19:41;;;;;;;3.80;1.27;;;12.80;80.00;;;;;;5133434;27;20168;-62
2022/09/27 07:22:07;;;;;;;2.53;1.25;;;12.80;80.10;;;;;;5118347;27;20118;-61
2022/09/27 07:24:34;;;;;;;5.85;1.23;;;12.70;80.40;;;;;;5114989;27;20034;-62
2022/09/27 07:27:00;;;;;;;4.72;1.33;;;12.60;80.60;;;;;;5115474;28;20371;-62
2022/09/27 07:29:26;;;;;;;4.88;1.15;;;12.60;80.80;;;;;;5115703;28;20107;-62
2022/09/27 07:31:52;;;;;;;3.42;1.17;;;12.60;80.90;;;;;;5132993;27;20026;-61
2022/09/27 07:34:18;;;;;;;3.70;1.30;;;12.60;81.00;;;;;;5119186;27;20410;-61
2022/09/27 07:36:44;;;;;;;6.20;1.67;;;12.70;81.00;;;;;;5128697;27;20027;-61
2022/09/27 07:39:11;;;;;;;3.25;1.30;;;12.70;81.00;;;;;;5135044;27;20032;-61
2022/09/27 07:41:39;;;;;;;2.75;1.50;;;12.70;81.00;;;;;;5114862;28;20031;-61
2022/09/27 07:44:05;;;;;;;4.57;1.70;;;12.70;81.10;;;;;;5101277;28;20372;-61
2022/09/27 07:46:33;;;;;;;4.85;1.60;;;12.70;81.00;;;;;;5131691;27;20123;-61
2022/09/27 07:49:07;;;;;;;5.00;1.30;;;12.80;81.00;;;;;;5115445;27;20405;-62
2022/09/27 07:51:39;;;;;;;3.65;1.50;;;12.80;80.80;;;;;;5120862;27;20509;-61
2022/09/27 07:54:25;;;;;;;2.88;1.08;;;12.90;80.80;;;;;;5110013;28;20369;-61
2022/09/27 07:57:12;;;;;;;4.43;1.20;;;12.90;80.70;;;;;;5104074;28;20360;-63
2022/09/27 07:59:46;;;;;;;3.83;1.42;;;13.00;80.70;;;;;;5131982;27;20114;-63
2022/09/27 08:02:16;;;;;;;3.85;1.33;;;13.00;80.80;;;;;;5113663;27;20028;-63
2022/09/27 08:04:43;;;;;;;5.07;1.42;;;13.00;80.80;;;;;;5113201;27;20028;-62
2022/09/27 08:07:09;;;;;;;5.10;1.52;;;13.00;80.80;;;;;;5114641;28;20114;-62
2022/09/27 08:09:36;;;;;;;4.40;1.38;;;13.00;80.80;;;;;;5131824;27;20511;-62
2022/09/27 08:12:03;;;;;;;2.80;1.10;;;13.10;80.80;;;;;;5113913;28;20118;-61
2022/09/27 08:14:29;;;;;;;3.63;1.45;;;13.10;80.90;;;;;;5114347;27;20373;-63
2022/09/27 08:16:55;;;;;;;3.72;0.93;;;13.10;80.90;;;;;;5131014;27;20023;-62
2022/09/27 08:19:26;;;;;;;3.88;1.23;;;13.10;80.80;;;;;;5115450;28;20042;-63
2022/09/27 08:22:02;;;;;;;3.55;1.23;;;13.10;80.80;;;;;;5108882;27;20039;-62
2022/09/27 08:24:37;;;;;;;2.58;1.17;;;13.10;80.80;;;;;;5115683;27;20027;-62
2022/09/27 08:27:15;;;;;;;3.83;0.80;;;13.10;80.80;;;;;;5112245;27;20024;-62
2022/09/27 08:29:56;;;;;;;4.82;1.13;;;13.20;80.80;;;;;;5118752;27;20027;-63
2022/09/27 08:32:22;;;;;;;2.47;1.08;;;13.20;80.60;;;;;;5110146;28;20016;-62
2022/09/27 08:34:47;;;;;;;3.80;1.50;;;13.30;80.70;;;;;;5126737;27;20485;-62
2022/09/27 08:37:13;;;;;;;3.38;1.00;;;13.30;80.70;;;;;;5130100;27;20042;-61
2022/09/27 08:39:39;;;;;;;4.68;1.35;;;13.30;80.70;;;;;;5134208;27;20087;-61
2022/09/27 08:42:28;;;;;;;4.72;1.67;;;13.30;80.70;;;;;;5123824;27;20363;-62
2022/09/27 08:45:08;;;;;;;4.07;1.38;;;13.20;80.70;;;;;;5131350;27;20035;-62
2022/09/27 08:47:44;;;;;;;4.20;1.33;;;13.10;80.80;;;;;;5131262;27;20020;-63
2022/09/27 08:50:33;;;;;;;5.03;1.50;;;13.00;80.80;;;;;;5129127;27;20110;-62
2022/09/27 08:53:13;;;;;;;5.28;1.55;;;13.10;81.00;;;;;;5113997;28;20020;-62
2022/09/27 08:55:48;;;;;;;6.20;1.65;;;13.00;81.00;;;;;;5112505;28;20032;-62
2022/09/27 08:58:29;;;;;;;5.03;1.90;;;13.00;81.20;;;;;;5113560;28;20023;-62
2022/09/27 09:00:59;;;;;;;3.28;1.33;;;13.00;81.20;;;;;;5114284;27;20349;-62
2022/09/27 09:03:35;;;;;;;4.57;1.75;;;13.10;81.10;;;;;;5113829;28;20096;-62
2022/09/27 09:06:10;;;;;;;4.72;1.85;;;13.20;81.00;;;;;;5130713;27;20051;-62
2022/09/27 09:09:12;;;;;;;4.07;1.70;;;13.20;80.80;;;;;;5130996;27;20019;-62
2022/09/27 09:15:03;;;;;;;5.85;2.17;;;13.40;80.70;;;;;;5112966;28;20043;-61
2022/09/27 09:17:40;;;;;;;3.60;1.80;;;13.40;80.70;;;;;;5113162;28;20053;-60
2022/09/27 09:20:39;;;;;;;3.20;1.60;;;13.40;80.70;;;;;;5108383;28;20114;-61
2022/09/27 09:23:36;;;;;;;3.40;1.95;;;13.40;80.60;;;;;;5117353;27;20038;-62
2022/09/27 09:26:12;;;;;;;3.05;1.63;;;13.50;80.70;;;;;;5134453;27;20092;-62
2022/09/27 09:28:56;;;;;;;3.10;1.50;;;13.50;80.50;;;;;;5117736;28;20123;-62
2022/09/27 09:31:42;;;;;;;2.75;1.25;;;13.60;80.50;;;;;;5134079;27;20031;-62
2022/09/27 09:34:17;;;;;;;3.25;1.20;;;13.60;80.30;;;;;;5134514;27;20088;-62
2022/09/27 09:36:53;;;;;;;4.90;1.77;;;13.50;80.30;;;;;;5135072;27;20027;-62
2022/09/27 09:39:32;;;;;;;4.45;1.70;;;13.50;80.40;;;;;;5132638;27;20111;-62
2022/09/27 09:42:11;;;;;;;3.30;1.60;;;13.40;80.50;;;;;;5118685;27;20031;-62
2022/09/27 09:45:01;;;;;;;4.28;2.05;;;13.30;80.50;;;;;;5113640;27;20023;-62
2022/09/27 09:47:30;;;;;;;5.05;2.10;;;13.20;80.70;;;;;;5117614;28;20128;-62
2022/09/27 09:50:05;;;;;;;6.55;2.28;;;13.10;80.80;;;;;;5099931;28;20032;-62
2022/09/27 09:52:47;;;;;;;4.95;1.70;;;13.10;81.00;;;;;;5117483;28;20118;-62
2022/09/27 09:55:23;;;;;;;6.10;1.83;;;13.00;81.10;;;;;;5135682;27;20023;-62
2022/09/27 09:57:53;;;;;;;5.80;2.20;;;13.00;81.30;;;;;;5124131;27;20031;-62
2022/09/27 10:00:23;;;;;;;4.15;1.42;;;12.90;81.30;;;;;;5100534;28;20047;-62
2022/09/27 10:02:54;;;;;;;6.78;1.83;;;12.90;81.30;;;;;;5117586;28;20160;-62
2022/09/27 10:05:23;;;;;;;5.55;1.60;;;13.00;81.40;;;;;;5101696;28;20106;-62
2022/09/27 10:08:03;;;;;;;4.35;1.35;;;13.00;81.40;;;;;;5117332;28;20059;-63
2022/09/27 10:10:29;;;;;;;4.50;1.63;;;13.00;81.30;;;;;;5118733;27;20023;-62
2022/09/27 10:13:21;;;;;;;7.03;1.40;;;13.00;81.30;;;;;;5117947;28;20038;-63
2022/09/27 10:16:09;;;;;;;3.90;1.17;;;13.10;81.30;;;;;;5133772;27;20043;-63
2022/09/27 10:18:37;;;;;;;3.28;1.10;;;13.20;81.10;;;;;;5103731;28;20020;-63
2022/09/27 10:21:12;;;;;;;4.38;1.20;;;13.20;80.90;;;;;;5096554;28;20016;-62
2022/09/27 10:24:03;;;;;;;6.32;1.08;;;13.10;80.80;;;;;;5108073;27;20038;-62
2022/09/27 10:26:48;;;;;;;4.20;1.08;;;13.10;80.90;;;;;;5130622;27;20366;-62
2022/09/27 10:29:26;;;;;;;2.97;0.90;;;13.10;81.00;;;;;;5131322;27;20020;-62
2022/09/27 10:31:54;;;;;;;3.65;0.98;;;13.10;81.10;;;;;;5116369;27;20019;-62
2022/09/27 10:34:26;;;;;;;3.90;0.93;;;13.10;81.00;;;;;;5122435;27;20370;-63
2022/09/27 10:37:16;;;;;;;2.85;1.00;;;13.10;80.90;;;;;;5132134;27;20114;-63
2022/09/27 10:39:52;;;;;;;4.72;1.17;;;13.20;80.80;;;;;;5132922;27;20049;-63
2022/09/27 10:42:33;;;;;;;4.97;1.42;;;13.20;80.70;;;;;;5133190;27;20073;-62
2022/09/27 10:45:26;;;;;;;5.00;1.20;;;13.20;80.70;;;;;;5132312;27;20028;-63
2022/09/27 10:48:01;;;;;;;2.78;0.68;;;13.20;80.60;;;;;;5108535;27;20444;-62
2022/09/27 10:50:39;;;;;;;2.58;0.80;;;13.20;80.60;;;;;;5116289;28;20027;-62
2022/09/27 10:53:35;;;;;;;3.78;1.13;;;13.30;80.50;;;;;;5110433;27;20100;-62
2022/09/27 10:56:36;;;;;;;3.28;1.05;;;13.30;80.30;;;;;;5111735;27;20722;-63
2022/09/27 10:59:04;;;;;;;2.10;0.80;;;13.30;80.70;;;;;;5111746;28;20115;-62
2022/09/27 11:01:50;;;;;;;2.63;0.85;;;13.40;80.10;;;;;;5108958;28;20085;-63
2022/09/27 11:04:35;;;;;;;2.15;0.77;;;13.40;79.80;;;;;;5120339;27;20015;-62
2022/09/27 11:07:18;;;;;;;2.43;0.83;;;13.40;79.50;;;;;;5123610;27;20092;-62
2022/09/27 11:09:53;;;;;;;3.70;1.00;;;13.40;79.50;;;;;;5132830;27;20280;-62
2022/09/27 11:12:21;;;;;;;2.60;0.88;;;13.40;79.50;;;;;;5111636;28;20103;-62
2022/09/27 11:15:00;;;;;;;3.65;1.38;;;13.40;79.50;;;;;;5130980;27;20357;-62
2022/09/27 11:17:38;;;;;;;5.22;1.25;;;13.50;79.50;;;;;;5115921;27;20031;-62
2022/09/27 11:20:10;;;;;;;3.58;1.20;;;13.50;79.50;;;;;;5132787;27;20102;-62
2022/09/27 11:22:40;;;;;;;6.07;1.13;;;13.50;79.50;;;;;;5115554;28;20035;-62
2022/09/27 11:25:33;;;;;;;5.35;1.00;;;13.40;79.50;;;;;;5115475;27;20482;-61
2022/09/27 11:28:19;;;;;;;2.22;0.77;;;13.50;79.60;;;;;;5133073;27;20028;-62
2022/09/27 11:31:19;;;;;;;4.07;0.98;;;13.50;79.40;;;;;;5113922;28;20027;-62
2022/09/27 11:34:17;;;;;;;4.22;1.10;;;13.50;79.20;;;;;;5131277;27;20061;-62
2022/09/27 11:36:54;;;;;;;5.30;1.00;;;13.40;79.30;;;;;;5114557;27;20119;-61
2022/09/27 11:39:35;;;;;;;2.35;0.85;;;13.50;79.40;;;;;;5114950;28;20062;-62
2022/09/27 11:42:23;;;;;;;3.10;1.10;;;13.60;79.20;;;;;;5113860;27;20064;-62
2022/09/27 11:45:13;;;;;;;3.63;1.20;;;13.70;78.90;;;;;;5133563;27;20035;-62
2022/09/27 11:47:50;;;;;;;4.30;1.10;;;13.70;78.70;;;;;;5115260;27;20509;-62
2022/09/27 11:50:41;;;;;;;3.60;1.10;;;13.80;78.60;;;;;;5114676;28;20034;-62
2022/09/27 11:53:29;;;;;;;2.95;0.90;;;13.80;78.50;;;;;;5119570;27;20401;-62
2022/09/27 11:56:06;;;;;;;2.75;1.00;;;13.80;78.50;;;;;;5132214;27;20353;-62
2022/09/27 11:59:06;;;;;;;2.47;0.70;;;13.80;78.40;;;;;;5131493;27;20364;-62
2022/09/27 12:01:39;;;;;;;2.88;0.82;;;13.80;78.30;;;;;;5098867;28;20028;-62
2022/09/27 12:04:29;;;;;;;4.15;1.05;;;13.80;78.30;;;;;;5115031;27;20110;-62
2022/09/27 12:07:14;;;;;;;2.53;0.60;;;13.70;78.10;;;;;;5110620;27;20027;-62
2022/09/27 12:09:47;;;;;;;1.85;0.77;;;13.70;78.20;;;;;;5131756;27;20031;-62
2022/09/27 12:12:15;;;;;;;3.72;1.10;;;13.60;77.90;;;;;;5129945;27;20023;-62
2022/09/27 12:14:58;;;;;;;2.10;1.10;;;13.60;77.80;;;;;;5121530;27;20085;-63
2022/09/27 12:17:37;;;;;;;3.30;1.13;;;13.60;77.80;;;;;;5121716;27;20053;-62
2022/09/27 12:20:15;;;;;;;2.40;0.82;;;13.60;77.80;;;;;;5132312;27;20041;-62
2022/09/27 12:22:56;;;;;;;3.08;0.75;;;13.60;77.90;;;;;;5102431;28;20039;-62
2022/09/27 12:25:30;;;;;;;2.08;0.73;;;13.70;78.70;;;;;;5132262;27;20051;-62
2022/09/27 12:28:26;;;;;;;2.80;0.80;;;13.70;78.00;;;;;;5131114;27;20015;-62
2022/09/27 12:30:58;;;;;;;2.53;0.73;;;13.70;77.70;;;;;;5107238;28;20482;-62
2022/09/27 12:33:38;;;;;;;1.55;0.73;;;13.70;77.70;;;;;;5131826;27;20111;-62
2022/09/27 12:36:15;;;;;;;1.30;0.70;;;13.80;77.80;;;;;;5131906;27;20019;-62
2022/09/27 12:38:57;;;;;;;2.38;0.60;;;13.80;77.60;;;;;;5114675;28;20076;-60
2022/09/27 12:41:27;;;;;;;2.97;0.73;;;13.80;77.40;;;;;;5118887;27;20077;-60
2022/09/27 12:44:10;;;;;;;2.30;0.82;;;13.80;77.40;;;;;;5129956;27;20038;-60
2022/09/27 12:46:56;;;;;;;1.73;0.60;;;13.80;77.40;;;;;;5131641;27;20478;-60
2022/09/27 12:49:54;;;;;;;0.95;0.50;;;13.80;77.30;;;;;;5131606;27;20020;-60
2022/09/27 12:52:24;;;;;;;2.55;0.60;;;13.70;77.30;;;;;;5131622;27;20092;-60
2022/09/27 12:55:09;;;;;;;1.15;0.40;;;13.70;77.30;;;;;;5100384;28;20386;-60
2022/09/27 12:58:10;;;;;;;0.82;0.60;;;13.70;77.30;;;;;;5114805;28;20032;-60
2022/09/27 13:00:54;;;;;;;1.75;0.73;;;13.70;77.10;;;;;;5114564;28;20440;-60
2022/09/27 13:03:40;;;;;;;2.53;0.77;;;13.70;77.20;;;;;;5100956;28;20360;-60
2022/09/27 13:06:23;;;;;;;1.50;0.77;;;13.70;77.30;;;;;;5132503;27;20032;-60
2022/09/27 13:09:05;;;;;;;1.48;0.70;;;13.70;77.30;;;;;;5131870;27;20114;-62
2022/09/27 13:11:41;;;;;;;2.95;0.88;;;13.60;77.30;;;;;;5131327;28;20051;-62
2022/09/27 13:14:17;;;;;;;2.38;0.98;;;13.50;77.40;;;;;;5131102;28;20019;-62
2022/09/27 13:16:45;;;;;;;0.77;0.60;;;13.50;77.60;;;;;;5115230;28;20027;-62
2022/09/27 13:19:39;;;;;;;2.38;0.77;;;13.40;77.70;;;;;;5129436;27;20418;-62
2022/09/27 13:22:26;;;;;;;3.80;0.93;;;13.40;77.70;;;;;;5128353;27;20020;-62
2022/09/27 13:25:03;;;;;;;3.85;1.20;;;13.40;77.70;;;;;;5128036;28;20097;-62
2022/09/27 13:27:49;;;;;;;2.80;1.10;;;13.30;77.70;;;;;;5112163;28;20089;-62
2022/09/27 13:30:44;;;;;;;1.60;0.70;;;13.30;77.60;;;;;;5111729;28;20038;-62
2022/09/27 13:33:12;;;;;;;2.10;0.88;;;13.30;77.40;;;;;;5116862;28;20039;-62
2022/09/27 13:36:19;;;;;;;3.45;0.95;;;13.20;77.60;;;;;;5111054;28;20028;-62
2022/09/27 13:39:05;;;;;;;2.00;0.82;;;13.20;77.80;;;;;;5129609;28;20023;-63
2022/09/27 13:41:47;;;;;;;2.78;0.90;;;13.20;77.80;;;;;;5113075;28;20080;-63